Terminal Aerodrome Forecast
Issued by NWS

Home | Current Version | Previous Version | Text Only | Print | Product List | Glossary On
Versions: 1 2 3 4 5 6 7 8 9 10 11 12 13 14 15 16 17
760
FTUS42 KFFC 181120
TAFRYY
TAF
KRYY 181120Z 1812/1912 03003KT 1SM -DZ BR OVC002
      TEMPO 1812/1814 1/2SM FG OVC002
     FM181600 28004KT 6SM BR OVC008
     FM181900 28006KT P6SM OVC015
     FM182300 28005KT P6SM FEW020 OVC100=

USA.gov is the U.S. government's official web portal to all federal, state and local government web resources and services.